createdAt,value
2019-01-18T00:00:07.457Z,87.99
2019-01-18T00:01:07.467Z,89.03
2019-01-18T00:02:07.510Z,88.51
2019-01-18T00:03:07.479Z,89.14
2019-01-18T00:04:07.475Z,89.24
2019-01-18T00:05:07.430Z,88.51
2019-01-18T00:06:07.411Z,88.72
2019-01-18T00:07:07.402Z,88.30
2019-01-18T00:08:07.406Z,89.03
2019-01-18T00:09:07.381Z,88.93
2019-01-18T00:10:07.407Z,88.93
2019-01-18T00:11:07.373Z,88.82
2019-01-18T00:12:07.344Z,88.72
2019-01-18T00:13:07.333Z,88.41
2019-01-18T00:14:07.334Z,88.47
2019-01-18T00:15:07.356Z,88.93
2019-01-18T00:16:07.349Z,88.72
2019-01-18T00:17:07.300Z,88.51
2019-01-18T00:18:07.291Z,88.26
2019-01-18T00:19:07.278Z,88.26
2019-01-18T00:20:07.316Z,88.99
2019-01-18T00:21:07.237Z,88.82
2019-01-18T00:22:07.231Z,88.37
2019-01-18T00:23:07.220Z,89.10
2019-01-18T00:24:07.221Z,89.10
2019-01-18T00:25:07.220Z,88.62
2019-01-18T00:26:07.217Z,89.76
2019-01-18T00:27:07.198Z,89.56
2019-01-18T00:28:07.175Z,89.56
2019-01-18T00:29:07.164Z,88.51
2019-01-18T00:30:07.168Z,88.78
2019-01-18T00:31:07.152Z,88.47
2019-01-18T00:32:07.138Z,88.82
2019-01-18T00:33:07.107Z,89.03
2019-01-18T00:34:07.149Z,89.24
2019-01-18T00:35:07.154Z,88.47
2019-01-18T00:36:07.141Z,88.41
2019-01-18T00:37:07.084Z,88.41
2019-01-18T00:38:07.049Z,88.41
2019-01-18T00:39:07.063Z,89.34
2019-01-18T00:40:07.052Z,88.93
2019-01-18T00:41:07.044Z,89.03
2019-01-18T00:42:07.022Z,88.82
2019-01-18T00:43:07.023Z,88.72
2019-01-18T00:44:07.003Z,89.24
2019-01-18T00:45:07.216Z,89.66
2019-01-18T00:46:06.987Z,89.66
2019-01-18T00:47:06.993Z,88.62
2019-01-18T00:48:06.974Z,89.66
2019-01-18T00:49:06.980Z,89.24
2019-01-18T00:50:06.919Z,89.56
2019-01-18T00:51:06.991Z,89.14
2019-01-18T00:52:06.926Z,89.59
2019-01-18T00:53:06.911Z,89.14
2019-01-18T00:54:06.892Z,89.34
2019-01-18T00:55:06.953Z,89.03
2019-01-18T00:56:07.186Z,89.39
2019-01-18T00:57:06.864Z,89.56
2019-01-18T00:58:06.844Z,89.66
2019-01-18T00:59:06.832Z,89.24
2019-01-18T01:00:06.834Z,88.62
2019-01-18T01:01:06.815Z,88.62
2019-01-18T01:02:06.857Z,89.24
2019-01-18T01:03:06.795Z,89.66
2019-01-18T01:04:06.795Z,89.70
2019-01-18T01:05:06.787Z,89.28
2019-01-18T01:06:06.767Z,89.39
2019-01-18T01:07:06.791Z,89.28
2019-01-18T01:08:06.746Z,89.28
2019-01-18T01:09:06.711Z,89.49
2019-01-18T01:10:06.720Z,89.59
2019-01-18T01:11:06.744Z,89.18
2019-01-18T01:12:06.719Z,89.28
2019-01-18T01:13:06.772Z,89.18
2019-01-18T01:14:06.695Z,89.81
2019-01-18T01:15:06.703Z,89.95
2019-01-18T01:16:06.703Z,89.39
2019-01-18T01:17:06.732Z,89.74
2019-01-18T01:18:06.635Z,89.70
2019-01-18T01:19:06.696Z,89.59
2019-01-18T01:20:06.607Z,89.64
2019-01-18T01:21:06.602Z,89.49
2019-01-18T01:22:06.594Z,89.49
2019-01-18T01:23:06.595Z,89.81
2019-01-18T01:24:06.603Z,89.70
2019-01-18T01:25:06.589Z,89.49
2019-01-18T01:26:06.547Z,89.39
2019-01-18T01:27:06.569Z,89.43
2019-01-18T01:28:06.552Z,89.49
2019-01-18T01:29:06.515Z,89.70
2019-01-18T01:30:06.487Z,89.91
2019-01-18T01:31:06.544Z,89.70
2019-01-18T01:32:06.743Z,89.91
2019-01-18T01:33:06.495Z,89.49
2019-01-18T01:34:06.486Z,89.70
2019-01-18T01:35:06.464Z,89.91
2019-01-18T01:36:06.494Z,89.91
2019-01-18T01:37:06.499Z,89.32
2019-01-18T01:38:06.463Z,89.11
2019-01-18T01:39:06.428Z,89.11
2019-01-18T01:40:06.396Z,89.32
2019-01-18T01:41:06.391Z,89.43
2019-01-18T01:42:06.371Z,89.43
2019-01-18T01:43:06.439Z,89.49
2019-01-18T01:44:06.383Z,89.39
2019-01-18T01:45:06.351Z,89.49
2019-01-18T01:46:06.319Z,89.53
2019-01-18T01:47:06.323Z,89.28
2019-01-18T01:48:06.322Z,89.11
2019-01-18T01:49:06.357Z,89.59
2019-01-18T01:50:06.313Z,89.59
2019-01-18T01:51:06.275Z,89.43
2019-01-18T01:52:06.263Z,89.64
2019-01-18T01:53:06.315Z,89.32
2019-01-18T01:54:06.307Z,89.22
2019-01-18T01:55:06.259Z,89.59
2019-01-18T01:56:06.229Z,89.53
2019-01-18T01:57:06.247Z,89.84
2019-01-18T01:58:06.276Z,89.95
2019-01-18T01:59:06.191Z,89.95
2019-01-18T02:00:06.211Z,89.74
2019-01-18T02:01:06.282Z,90.16
2019-01-18T02:02:06.146Z,90.52
2019-01-18T02:03:06.137Z,90.20
2019-01-18T02:04:06.173Z,90.20
2019-01-18T02:05:06.135Z,90.93
2019-01-18T02:06:06.174Z,90.78
2019-01-18T02:07:06.172Z,90.72
2019-01-18T02:08:06.126Z,90.72
2019-01-18T02:09:06.122Z,90.83
2019-01-18T02:10:06.092Z,91.03
2019-01-18T02:11:06.080Z,91.14
2019-01-18T02:12:06.104Z,91.03
2019-01-18T02:13:06.080Z,91.25
2019-01-18T02:14:06.067Z,90.93
2019-01-18T02:15:06.227Z,91.66
2019-01-18T02:16:06.031Z,91.25
2019-01-18T02:17:06.008Z,91.25
2019-01-18T02:18:06.013Z,90.93
2019-01-18T02:19:06.014Z,91.14
2019-01-18T02:20:06.003Z,91.35
2019-01-18T02:21:06.021Z,91.25
2019-01-18T02:22:05.982Z,91.28
2019-01-18T02:23:05.977Z,91.35
2019-01-18T02:24:05.980Z,91.18
2019-01-18T02:25:05.988Z,90.97
2019-01-18T02:26:05.919Z,91.50
2019-01-18T02:27:05.908Z,91.18
2019-01-18T02:28:05.899Z,91.28
2019-01-18T02:29:05.882Z,91.43
2019-01-18T02:30:05.987Z,91.39
2019-01-18T02:31:05.860Z,91.50
2019-01-18T02:32:05.849Z,91.12
2019-01-18T02:33:05.838Z,91.18
2019-01-18T02:34:05.832Z,91.28
2019-01-18T02:35:05.852Z,91.33
2019-01-18T02:36:05.859Z,91.50
2019-01-18T02:37:05.804Z,91.54
2019-01-18T02:38:05.785Z,91.54
2019-01-18T02:39:05.775Z,91.64
2019-01-18T02:40:05.813Z,91.75
2019-01-18T02:41:05.755Z,91.64
2019-01-18T02:42:05.746Z,91.33
2019-01-18T02:43:05.738Z,91.64
2019-01-18T02:44:05.728Z,91.43
2019-01-18T02:45:05.748Z,91.02
2019-01-18T02:46:05.710Z,91.64
2019-01-18T02:47:05.720Z,91.33
2019-01-18T02:48:05.688Z,91.18
2019-01-18T02:49:05.722Z,91.39
2019-01-18T02:50:05.705Z,91.12
2019-01-18T02:51:05.974Z,90.91
2019-01-18T02:52:05.661Z,90.81
2019-01-18T02:53:05.690Z,90.34
2019-01-18T02:54:05.653Z,90.45
2019-01-18T02:55:05.658Z,89.93
2019-01-18T02:56:05.608Z,89.61
2019-01-18T02:57:05.592Z,89.40
2019-01-18T02:58:05.574Z,89.83
2019-01-18T02:59:05.565Z,88.88
2019-01-18T03:00:05.552Z,88.99
2019-01-18T03:01:05.569Z,88.67
2019-01-18T03:02:05.528Z,88.67
2019-01-18T03:03:05.526Z,88.46
2019-01-18T03:04:05.741Z,88.46
2019-01-18T03:05:05.501Z,88.15
2019-01-18T03:06:05.526Z,88.26
2019-01-18T03:07:05.540Z,88.36
2019-01-18T03:08:05.470Z,88.57
2019-01-18T03:09:05.452Z,88.04
2019-01-18T03:10:05.444Z,87.94
2019-01-18T03:11:05.502Z,88.29
2019-01-18T03:12:05.505Z,88.09
2019-01-18T03:13:05.444Z,88.09
2019-01-18T03:14:05.437Z,88.40
2019-01-18T03:15:05.397Z,88.26
2019-01-18T03:16:05.388Z,87.88
2019-01-18T03:17:05.432Z,88.09
2019-01-18T03:18:05.399Z,88.61
2019-01-18T03:19:05.351Z,88.82
2019-01-18T03:20:05.367Z,88.71
2019-01-18T03:21:05.349Z,88.71
2019-01-18T03:22:05.385Z,88.61
2019-01-18T03:23:05.334Z,87.88
2019-01-18T03:24:05.323Z,87.66
2019-01-18T03:25:05.294Z,88.29
2019-01-18T03:26:05.266Z,88.12
2019-01-18T03:27:05.315Z,88.54
2019-01-18T03:28:05.238Z,88.86
2019-01-18T03:29:05.275Z,88.96
2019-01-18T03:30:17.462Z,89.59
2019-01-18T03:31:06.229Z,89.80
2019-01-18T03:32:05.270Z,90.01
2019-01-18T03:33:05.210Z,89.80
2019-01-18T03:34:05.183Z,89.59
2019-01-18T03:35:05.215Z,89.59
2019-01-18T03:36:05.181Z,89.48
2019-01-18T03:37:05.183Z,89.38
2019-01-18T03:38:05.193Z,89.80
2019-01-18T03:39:05.146Z,89.28
2019-01-18T03:40:05.131Z,89.65
2019-01-18T03:41:05.208Z,89.90
2019-01-18T03:42:05.129Z,88.96
2019-01-18T03:43:05.139Z,88.96
2019-01-18T03:44:05.102Z,88.75
2019-01-18T03:45:05.105Z,88.86
2019-01-18T03:46:05.095Z,88.82
2019-01-18T03:47:05.057Z,89.48
2019-01-18T03:48:05.058Z,89.70
2019-01-18T03:49:05.060Z,89.48
2019-01-18T03:50:05.047Z,89.59
2019-01-18T03:51:05.039Z,89.48
2019-01-18T03:52:05.009Z,89.48
2019-01-18T03:53:05.061Z,89.59
2019-01-18T03:54:05.025Z,89.48
2019-01-18T03:55:04.971Z,89.90
2019-01-18T03:56:04.944Z,89.80
2019-01-18T03:57:04.952Z,89.80
2019-01-18T03:58:04.943Z,89.48
2019-01-18T03:59:04.978Z,89.70
2019-01-18T04:00:04.927Z,89.59
2019-01-18T04:01:04.936Z,89.70
2019-01-18T04:02:04.927Z,89.48
2019-01-18T04:03:04.967Z,89.70
2019-01-18T04:04:04.906Z,89.95
2019-01-18T04:05:04.867Z,89.53
2019-01-18T04:06:04.878Z,89.73
2019-01-18T04:07:04.851Z,89.90
2019-01-18T04:08:04.839Z,89.42
2019-01-18T04:09:04.861Z,89.42
2019-01-18T04:10:04.842Z,89.53
2019-01-18T04:11:04.829Z,89.38
2019-01-18T04:12:04.791Z,89.38
2019-01-18T04:13:04.813Z,89.70
2019-01-18T04:14:04.774Z,89.38
2019-01-18T04:15:04.820Z,89.28
2019-01-18T04:16:04.753Z,88.86
2019-01-18T04:17:04.732Z,88.34
2019-01-18T04:18:04.724Z,88.44
2019-01-18T04:19:04.720Z,88.54
2019-01-18T04:20:04.738Z,88.54
2019-01-18T04:21:04.702Z,88.02
2019-01-18T04:22:04.704Z,88.34
2019-01-18T04:23:04.667Z,87.71
2019-01-18T04:24:04.658Z,87.71
2019-01-18T04:25:04.691Z,87.29
2019-01-18T04:26:04.646Z,87.18
2019-01-18T04:27:04.664Z,86.87
2019-01-18T04:28:04.650Z,87.29
2019-01-18T04:29:04.590Z,86.87
2019-01-18T04:30:05.583Z,87.08
2019-01-18T04:31:04.581Z,86.77
2019-01-18T04:32:04.606Z,86.87
2019-01-18T04:33:04.595Z,86.66
2019-01-18T04:34:04.624Z,87.18
2019-01-18T04:35:04.607Z,86.55
2019-01-18T04:36:04.564Z,86.87
2019-01-18T04:37:04.535Z,86.38
2019-01-18T04:38:04.536Z,86.60
2019-01-18T04:39:04.507Z,86.38
2019-01-18T04:40:04.564Z,86.07
2019-01-18T04:41:04.572Z,86.04
2019-01-18T04:42:04.521Z,86.49
2019-01-18T04:43:04.513Z,85.51
2019-01-18T04:44:04.469Z,85.51
2019-01-18T04:45:04.461Z,85.44
2019-01-18T04:46:04.455Z,85.86
2019-01-18T04:47:04.434Z,85.86
2019-01-18T04:48:04.435Z,85.44
2019-01-18T04:49:04.460Z,85.55
2019-01-18T04:50:04.429Z,86.49
2019-01-18T04:51:04.393Z,86.38
2019-01-18T04:52:04.407Z,86.38
2019-01-18T04:53:04.356Z,86.38
2019-01-18T04:54:04.347Z,86.28
2019-01-18T04:55:04.385Z,85.65
2019-01-18T04:56:04.423Z,85.69
2019-01-18T04:57:04.315Z,85.44
2019-01-18T04:58:04.326Z,85.24
2019-01-18T04:59:04.310Z,85.55
2019-01-18T05:00:04.342Z,85.86
2019-01-18T05:01:04.272Z,85.44
2019-01-18T05:02:04.334Z,85.65
2019-01-18T05:03:04.248Z,85.65
2019-01-18T05:04:04.277Z,85.34
2019-01-18T05:05:04.245Z,86.00
2019-01-18T05:06:04.310Z,85.90
2019-01-18T05:07:04.225Z,85.65
2019-01-18T05:08:04.214Z,85.59
2019-01-18T05:09:04.237Z,85.69
2019-01-18T05:10:04.177Z,85.38
2019-01-18T05:11:04.222Z,85.59
2019-01-18T05:12:04.177Z,85.48
2019-01-18T05:13:04.158Z,85.55
2019-01-18T05:14:04.170Z,85.27
2019-01-18T05:15:04.140Z,85.38
2019-01-18T05:16:04.143Z,85.27
2019-01-18T05:17:04.161Z,85.10
2019-01-18T05:18:04.075Z,85.06
2019-01-18T05:19:04.102Z,85.38
2019-01-18T05:20:04.095Z,85.42
2019-01-18T05:21:04.074Z,85.38
2019-01-18T05:22:04.092Z,85.48
2019-01-18T05:23:04.034Z,85.17
2019-01-18T05:24:04.047Z,85.21
2019-01-18T05:25:04.200Z,85.10
2019-01-18T05:26:04.006Z,84.54
2019-01-18T05:27:04.032Z,85.17
2019-01-18T05:28:04.076Z,85.10
2019-01-18T05:29:03.967Z,85.00
2019-01-18T05:30:03.959Z,84.79
2019-01-18T05:31:03.950Z,84.37
2019-01-18T05:32:03.957Z,84.33
2019-01-18T05:33:03.918Z,84.12
2019-01-18T05:34:03.959Z,84.37
2019-01-18T05:35:03.913Z,84.27
2019-01-18T05:36:03.893Z,84.37
2019-01-18T05:37:03.881Z,84.47
2019-01-18T05:38:03.880Z,85.00
2019-01-18T05:39:03.861Z,85.10
2019-01-18T05:40:03.917Z,85.10
2019-01-18T05:41:03.865Z,85.56
2019-01-18T05:42:03.832Z,86.25
2019-01-18T05:43:03.846Z,86.88
2019-01-18T05:44:03.808Z,86.78
2019-01-18T05:45:03.778Z,86.36
2019-01-18T05:46:03.791Z,85.73
2019-01-18T05:47:03.769Z,85.83
2019-01-18T05:48:03.802Z,85.42
2019-01-18T05:49:03.737Z,85.52
2019-01-18T05:50:03.756Z,85.73
2019-01-18T05:51:03.740Z,85.83
2019-01-18T05:52:03.736Z,85.83
2019-01-18T05:53:03.741Z,85.63
2019-01-18T05:54:03.737Z,85.21
2019-01-18T05:55:03.684Z,85.10
2019-01-18T05:56:03.697Z,85.10
2019-01-18T05:57:03.673Z,85.46
2019-01-18T05:58:03.708Z,85.25
2019-01-18T05:59:03.631Z,84.68
2019-01-18T06:00:03.637Z,85.25
2019-01-18T06:01:03.632Z,85.14
2019-01-18T06:02:03.619Z,84.62
2019-01-18T06:03:03.625Z,85.14
2019-01-18T06:04:03.621Z,84.83
2019-01-18T06:05:03.641Z,85.46
2019-01-18T06:06:03.581Z,85.14
2019-01-18T06:07:03.545Z,85.46
2019-01-18T06:08:03.551Z,85.25
2019-01-18T06:09:03.543Z,85.56
2019-01-18T06:10:03.561Z,85.77
2019-01-18T06:11:03.553Z,85.66
2019-01-18T06:12:03.504Z,85.66
2019-01-18T06:13:03.537Z,85.66
2019-01-18T06:14:03.491Z,85.46
2019-01-18T06:15:03.478Z,85.25
2019-01-18T06:16:03.469Z,85.77
2019-01-18T06:17:03.459Z,85.46
2019-01-18T06:18:03.439Z,85.56
2019-01-18T06:19:03.470Z,85.98
2019-01-18T06:20:03.420Z,85.35
2019-01-18T06:21:03.410Z,85.35
2019-01-18T06:22:03.429Z,84.93
2019-01-18T06:23:03.419Z,85.03
2019-01-18T06:24:03.446Z,85.14
2019-01-18T06:25:03.360Z,84.51
2019-01-18T06:26:03.365Z,84.30
2019-01-18T06:27:03.399Z,84.62
2019-01-18T06:28:03.336Z,84.62
2019-01-18T06:29:03.336Z,84.83
2019-01-18T06:30:03.347Z,84.86
2019-01-18T06:31:03.311Z,84.66
2019-01-18T06:32:03.294Z,84.66
2019-01-18T06:33:03.344Z,84.97
2019-01-18T06:34:03.318Z,84.97
2019-01-18T06:35:03.352Z,85.39
2019-01-18T06:36:03.257Z,85.18
2019-01-18T06:37:03.252Z,84.86
2019-01-18T06:38:03.335Z,85.60
2019-01-18T06:39:03.250Z,85.18
2019-01-18T06:40:03.241Z,85.49
2019-01-18T06:41:03.201Z,85.28
2019-01-18T06:42:03.192Z,84.86
2019-01-18T06:43:03.212Z,84.86
2019-01-18T06:44:03.263Z,85.39
2019-01-18T06:45:03.157Z,85.39
2019-01-18T06:46:03.176Z,85.49
2019-01-18T06:47:03.156Z,85.28
2019-01-18T06:48:03.150Z,85.39
2019-01-18T06:49:03.188Z,85.49
2019-01-18T06:50:03.174Z,85.60
2019-01-18T06:51:03.098Z,85.60
2019-01-18T06:52:03.089Z,85.39
2019-01-18T06:53:03.102Z,85.18
2019-01-18T06:54:03.061Z,85.49
2019-01-18T06:55:03.040Z,85.49
2019-01-18T06:56:03.039Z,85.18
2019-01-18T06:57:03.031Z,85.28
2019-01-18T06:58:03.052Z,84.76
2019-01-18T06:59:03.002Z,84.86
2019-01-18T07:00:03.032Z,85.18
2019-01-18T07:01:08.490Z,85.28
2019-01-18T07:02:04.136Z,85.60
2019-01-18T07:03:02.965Z,85.08
2019-01-18T07:04:02.949Z,84.55
2019-01-18T07:05:02.979Z,84.66
2019-01-18T07:06:02.913Z,84.44
2019-01-18T07:07:02.907Z,84.55
2019-01-18T07:08:02.928Z,84.55
2019-01-18T07:09:02.967Z,84.34
2019-01-18T07:10:02.898Z,84.44
2019-01-18T07:11:02.892Z,84.55
2019-01-18T07:12:02.956Z,84.66
2019-01-18T07:13:02.897Z,84.66
2019-01-18T07:14:02.878Z,84.23
2019-01-18T07:15:02.845Z,84.44
2019-01-18T07:16:02.858Z,84.55
2019-01-18T07:17:02.864Z,84.66
2019-01-18T07:18:02.863Z,84.34
2019-01-18T07:19:02.796Z,84.66
2019-01-18T07:20:02.782Z,84.66
2019-01-18T07:21:02.808Z,84.44
2019-01-18T07:22:02.754Z,84.03
2019-01-18T07:23:02.776Z,84.17
2019-01-18T07:24:02.795Z,84.55
2019-01-18T07:25:02.751Z,84.86
2019-01-18T07:26:02.788Z,85.18
2019-01-18T07:27:02.720Z,84.97
2019-01-18T07:28:02.707Z,85.60
2019-01-18T07:29:02.677Z,85.49
2019-01-18T07:30:02.682Z,85.60
2019-01-18T07:31:02.702Z,85.39
2019-01-18T07:32:02.695Z,86.02
2019-01-18T07:33:02.674Z,85.71
2019-01-18T07:34:02.664Z,85.71
2019-01-18T07:35:02.654Z,85.81
2019-01-18T07:36:02.642Z,85.91
2019-01-18T07:37:02.618Z,86.12
2019-01-18T07:38:02.597Z,85.71
2019-01-18T07:39:02.566Z,85.39
2019-01-18T07:40:02.550Z,85.39
2019-01-18T07:41:02.592Z,85.14
2019-01-18T07:42:02.549Z,85.60
2019-01-18T07:43:02.574Z,85.60
2019-01-18T07:44:02.513Z,85.60
2019-01-18T07:45:02.534Z,85.77
2019-01-18T07:46:02.516Z,85.71
2019-01-18T07:47:02.526Z,85.81
2019-01-18T07:48:02.519Z,85.71
2019-01-18T07:49:02.516Z,85.71
2019-01-18T07:50:02.494Z,85.56
2019-01-18T07:51:02.486Z,85.49
2019-01-18T07:52:02.474Z,85.49
2019-01-18T07:53:02.435Z,85.14
2019-01-18T07:54:02.569Z,85.91
2019-01-18T07:55:02.463Z,85.91
2019-01-18T07:56:02.410Z,85.81
2019-01-18T07:57:02.439Z,85.56
2019-01-18T07:58:02.466Z,85.66
2019-01-18T07:59:02.456Z,85.56
2019-01-18T08:00:02.399Z,85.46
2019-01-18T08:01:02.477Z,85.56
2019-01-18T08:02:02.393Z,85.35
2019-01-18T08:03:02.378Z,84.83
2019-01-18T08:04:02.360Z,85.14
2019-01-18T08:05:02.289Z,84.93
2019-01-18T08:06:02.324Z,85.46
2019-01-18T08:07:02.368Z,84.93
2019-01-18T08:08:03.171Z,85.14
2019-01-18T08:09:02.317Z,84.51
2019-01-18T08:10:02.305Z,84.83
2019-01-18T08:11:02.246Z,84.41
2019-01-18T08:12:02.247Z,85.03
2019-01-18T08:13:02.268Z,85.03
2019-01-18T08:14:02.218Z,84.83
2019-01-18T08:15:02.220Z,84.93
2019-01-18T08:16:02.178Z,84.83
2019-01-18T08:17:02.159Z,85.03
2019-01-18T08:18:02.169Z,84.72
2019-01-18T08:19:02.161Z,84.72
2019-01-18T08:20:02.184Z,85.63
2019-01-18T08:21:02.174Z,84.93
2019-01-18T08:22:02.183Z,84.83
2019-01-18T08:23:02.153Z,84.89
2019-01-18T08:24:02.170Z,84.89
2019-01-18T08:25:02.139Z,84.89
2019-01-18T08:26:02.086Z,84.89
2019-01-18T08:27:02.102Z,84.89
2019-01-18T08:28:02.157Z,84.89
2019-01-18T08:29:02.131Z,84.79
2019-01-18T08:30:02.119Z,84.89
2019-01-18T08:31:02.121Z,84.85
2019-01-18T08:32:02.019Z,85.38
2019-01-18T08:33:02.024Z,85.17
2019-01-18T08:34:02.000Z,84.96
2019-01-18T08:35:01.981Z,85.48
2019-01-18T08:36:01.994Z,85.38
2019-01-18T08:37:01.963Z,85.59
2019-01-18T08:38:02.004Z,85.38
2019-01-18T08:39:01.987Z,86.00
2019-01-18T08:40:01.940Z,85.65
2019-01-18T08:41:01.910Z,85.65
2019-01-18T08:42:01.898Z,85.48
2019-01-18T08:43:01.912Z,86.00
2019-01-18T08:44:01.927Z,86.43
2019-01-18T08:45:01.883Z,86.32
2019-01-18T08:46:01.854Z,86.38
2019-01-18T08:47:01.894Z,86.49
2019-01-18T08:48:01.836Z,86.00
2019-01-18T08:49:01.832Z,86.07
2019-01-18T08:50:01.838Z,86.28
2019-01-18T08:51:01.824Z,85.86
2019-01-18T08:52:01.782Z,86.18
2019-01-18T08:53:01.797Z,86.60
2019-01-18T08:54:01.781Z,86.18
2019-01-18T08:55:01.829Z,86.38
2019-01-18T08:56:01.743Z,86.28
2019-01-18T08:57:01.734Z,86.14
2019-01-18T08:58:01.723Z,86.38
2019-01-18T08:59:01.726Z,86.38
2019-01-18T09:00:01.755Z,86.66
2019-01-18T09:01:01.744Z,86.55
2019-01-18T09:02:01.682Z,86.45
2019-01-18T09:03:01.691Z,86.55
2019-01-18T09:04:01.710Z,86.87
2019-01-18T09:05:01.662Z,87.18
2019-01-18T09:06:01.635Z,87.18
2019-01-18T09:07:01.672Z,86.98
2019-01-18T09:08:01.633Z,86.87
2019-01-18T09:09:01.648Z,87.50
2019-01-18T09:10:01.597Z,87.71
2019-01-18T09:11:01.585Z,87.29
2019-01-18T09:12:01.570Z,87.60
2019-01-18T09:13:01.608Z,87.35
2019-01-18T09:14:01.582Z,86.93
2019-01-18T09:15:01.569Z,86.93
2019-01-18T09:16:01.585Z,86.93
2019-01-18T09:17:01.522Z,87.25
2019-01-18T09:18:01.509Z,86.93
2019-01-18T09:19:01.530Z,87.56
2019-01-18T09:20:01.535Z,87.46
2019-01-18T09:21:01.503Z,87.46
2019-01-18T09:22:01.464Z,87.98
2019-01-18T09:23:01.455Z,87.98
2019-01-18T09:24:01.448Z,87.77
2019-01-18T09:25:01.470Z,87.98
2019-01-18T09:26:01.447Z,87.98
2019-01-18T09:27:01.415Z,88.36
2019-01-18T09:28:01.425Z,88.29
2019-01-18T09:29:01.394Z,88.09
2019-01-18T09:30:01.400Z,87.88
2019-01-18T09:31:01.471Z,88.15
2019-01-18T09:32:01.362Z,87.94
2019-01-18T09:33:01.352Z,88.04
2019-01-18T09:34:01.342Z,87.94
2019-01-18T09:35:01.326Z,88.15
2019-01-18T09:36:01.368Z,88.04
2019-01-18T09:37:01.397Z,88.04
2019-01-18T09:38:01.296Z,87.94
2019-01-18T09:39:01.301Z,87.94
2019-01-18T09:40:01.305Z,88.01
2019-01-18T09:41:01.310Z,88.01
2019-01-18T09:42:01.301Z,87.90
2019-01-18T09:43:01.292Z,88.32
2019-01-18T09:44:01.265Z,88.21
2019-01-18T09:45:01.228Z,88.21
2019-01-18T09:46:01.241Z,87.59
2019-01-18T09:47:01.205Z,87.90
2019-01-18T09:48:01.193Z,87.59
2019-01-18T09:49:01.209Z,87.90
2019-01-18T09:50:01.194Z,87.27
2019-01-18T09:51:01.187Z,87.38
2019-01-18T09:52:01.185Z,87.59
2019-01-18T09:53:01.147Z,87.59
2019-01-18T09:54:01.138Z,86.85
2019-01-18T09:55:01.136Z,86.85
2019-01-18T09:56:01.105Z,87.13
2019-01-18T09:57:01.121Z,87.34
2019-01-18T09:58:01.088Z,86.82
2019-01-18T09:59:01.075Z,86.92
2019-01-18T10:00:01.076Z,86.82
2019-01-18T10:01:01.103Z,86.40
2019-01-18T10:02:01.047Z,86.51
2019-01-18T10:03:01.034Z,86.05
2019-01-18T10:04:01.035Z,86.05
2019-01-18T10:05:01.014Z,86.36
2019-01-18T10:06:01.072Z,86.36
2019-01-18T10:07:00.999Z,85.98
2019-01-18T10:08:01.015Z,86.05
2019-01-18T10:09:00.999Z,86.15
2019-01-18T10:10:00.959Z,86.15
2019-01-18T10:11:01.002Z,86.05
2019-01-18T10:12:00.952Z,86.25
2019-01-18T10:13:00.954Z,86.57
2019-01-18T10:14:00.920Z,85.21
2019-01-18T10:15:00.929Z,85.11
2019-01-18T10:16:00.946Z,85.11
2019-01-18T10:17:00.982Z,85.11
2019-01-18T10:18:01.067Z,84.89
2019-01-18T10:19:00.887Z,85.69
2019-01-18T10:20:00.858Z,85.69
2019-01-18T10:21:00.848Z,85.49
2019-01-18T10:22:00.867Z,85.38
2019-01-18T10:23:00.839Z,85.49
2019-01-18T10:24:00.840Z,85.27
2019-01-18T10:25:00.803Z,85.38
2019-01-18T10:26:00.802Z,85.38
2019-01-18T10:27:00.810Z,85.17
2019-01-18T10:28:00.771Z,85.17
2019-01-18T10:29:00.788Z,84.72
2019-01-18T10:30:00.773Z,84.86
2019-01-18T10:31:00.743Z,84.09
2019-01-18T10:32:00.733Z,84.30
2019-01-18T10:33:00.744Z,84.09
2019-01-18T10:34:00.706Z,83.78
2019-01-18T10:35:00.691Z,83.98
2019-01-18T10:36:00.723Z,83.98
2019-01-18T10:37:00.729Z,84.09
2019-01-18T10:38:00.675Z,83.84
2019-01-18T10:39:00.668Z,83.98
2019-01-18T10:40:00.660Z,83.84
2019-01-18T10:41:00.630Z,83.95
2019-01-18T10:42:00.634Z,83.84
2019-01-18T10:43:00.635Z,83.01
2019-01-18T10:44:05.939Z,82.90
2019-01-18T10:45:01.581Z,82.80
2019-01-18T10:46:00.574Z,82.48
2019-01-18T10:47:00.563Z,82.48
2019-01-18T10:48:00.576Z,82.45
2019-01-18T10:49:00.959Z,82.17
2019-01-18T10:50:00.535Z,82.80
2019-01-18T10:51:00.524Z,83.01
2019-01-18T10:52:00.515Z,83.32
2019-01-18T10:53:00.511Z,83.49
2019-01-18T10:54:00.535Z,84.22
2019-01-18T10:55:00.520Z,84.33
2019-01-18T10:56:00.463Z,84.33
2019-01-18T10:57:00.500Z,82.97
2019-01-18T10:58:00.769Z,83.18
2019-01-18T10:59:00.432Z,82.65
2019-01-18T11:00:00.448Z,83.07
2019-01-18T11:01:00.459Z,82.97
2019-01-18T11:02:06.930Z,82.87
2019-01-18T11:03:01.446Z,82.34
2019-01-18T11:04:00.376Z,82.31
2019-01-18T11:05:00.365Z,81.89
2019-01-18T11:06:00.400Z,82.10
2019-01-18T11:07:00.352Z,82.20
2019-01-18T11:08:00.335Z,82.10
2019-01-18T11:09:00.482Z,82.93
2019-01-18T11:10:00.342Z,82.41
2019-01-18T11:11:00.335Z,82.41
2019-01-18T11:12:00.299Z,82.62
2019-01-18T11:13:00.319Z,82.31
2019-01-18T11:14:00.313Z,82.41
2019-01-18T11:15:00.290Z,82.62
2019-01-18T11:16:00.245Z,82.41
2019-01-18T11:17:00.264Z,82.37
2019-01-18T11:18:00.267Z,82.06
2019-01-18T11:19:00.340Z,82.10
2019-01-18T11:20:00.213Z,81.37
2019-01-18T11:21:00.192Z,81.89
2019-01-18T11:22:00.453Z,81.79
2019-01-18T11:23:00.172Z,81.96
2019-01-18T11:24:00.219Z,82.20
2019-01-18T11:25:00.171Z,81.43
2019-01-18T11:26:00.159Z,81.23
2019-01-18T11:27:00.125Z,81.75
2019-01-18T11:28:00.109Z,80.81
2019-01-18T11:29:00.288Z,81.43
2019-01-18T11:30:00.098Z,81.02
2019-01-18T11:31:00.079Z,81.33
2019-01-18T11:32:00.092Z,82.06
2019-01-18T11:33:00.105Z,81.81
2019-01-18T11:34:00.045Z,81.40
2019-01-18T11:35:00.038Z,82.03
2019-01-18T11:36:00.027Z,81.81
2019-01-18T11:37:00.034Z,81.29
2019-01-18T11:38:00.024Z,81.50
2019-01-18T11:38:59.985Z,80.98
2019-01-18T11:39:59.982Z,80.67
2019-01-18T11:40:59.992Z,80.67
2019-01-18T11:41:59.962Z,80.77
2019-01-18T11:42:59.973Z,80.36
2019-01-18T11:43:59.937Z,81.19
2019-01-18T11:44:59.962Z,80.88
2019-01-18T11:45:59.918Z,81.50
2019-01-18T11:46:59.906Z,81.71
2019-01-18T11:47:59.892Z,81.81
2019-01-18T11:48:59.900Z,81.88
2019-01-18T11:49:59.925Z,81.36
2019-01-18T11:50:59.895Z,80.63
2019-01-18T11:51:59.868Z,81.26
2019-01-18T11:52:59.860Z,80.94
2019-01-18T11:53:59.861Z,80.57
2019-01-18T11:54:59.864Z,80.74
2019-01-18T11:55:59.841Z,80.84
2019-01-18T11:56:59.796Z,80.22
2019-01-18T11:57:59.786Z,80.22
2019-01-18T11:58:59.797Z,80.22
2019-01-18T11:59:59.815Z,79.69
2019-01-18T12:00:59.765Z,80.22
2019-01-18T12:01:59.744Z,80.22
2019-01-18T12:02:59.733Z,79.76
2019-01-18T12:03:59.725Z,79.14
2019-01-18T12:04:59.732Z,79.45
2019-01-18T12:05:59.726Z,79.14
2019-01-18T12:06:59.711Z,79.55
2019-01-18T12:07:59.680Z,79.45
2019-01-18T12:08:59.709Z,79.24
2019-01-18T12:09:59.656Z,78.93
2019-01-18T12:10:59.729Z,79.14
2019-01-18T12:11:59.635Z,78.83
2019-01-18T12:12:59.645Z,79.03
2019-01-18T12:13:59.613Z,79.14
2019-01-18T12:14:59.629Z,79.14
2019-01-18T12:15:59.592Z,78.79
2019-01-18T12:16:59.585Z,78.79
2019-01-18T12:17:59.572Z,78.89
2019-01-18T12:18:59.577Z,78.48
2019-01-18T12:19:59.547Z,78.89
2019-01-18T12:20:59.560Z,78.79
2019-01-18T12:21:59.529Z,78.27
2019-01-18T12:22:59.513Z,78.58
2019-01-18T12:23:59.505Z,77.75
2019-01-18T12:24:59.517Z,77.65
2019-01-18T12:25:59.505Z,77.44
2019-01-18T12:26:59.475Z,77.86
2019-01-18T12:27:59.464Z,77.75
2019-01-18T12:28:59.452Z,77.96
2019-01-18T12:29:59.445Z,77.34
2019-01-18T12:30:59.674Z,77.20
2019-01-18T12:31:59.419Z,77.44
2019-01-18T12:32:59.410Z,78.75
2019-01-18T12:33:59.398Z,77.72
2019-01-18T12:34:59.392Z,77.40
2019-01-18T12:35:59.382Z,77.20
2019-01-18T12:36:59.442Z,76.68
2019-01-18T12:37:59.358Z,76.78
2019-01-18T12:38:59.347Z,76.89
2019-01-18T12:39:59.333Z,77.09
2019-01-18T12:40:59.347Z,77.40
2019-01-18T12:41:59.311Z,76.78
2019-01-18T12:42:59.318Z,76.68
2019-01-18T12:43:59.296Z,76.37
2019-01-18T12:44:59.287Z,76.57
2019-01-18T12:45:59.305Z,76.37
2019-01-18T12:46:59.286Z,76.26
2019-01-18T12:47:59.305Z,76.37
2019-01-18T12:48:59.261Z,76.26
2019-01-18T12:49:59.231Z,76.16
2019-01-18T12:50:59.218Z,76.06
2019-01-18T12:51:59.230Z,76.16